createdAt,value
2022-11-20T00:01:26.917Z,25.83
2022-11-20T00:03:56.005Z,30.65
2022-11-20T00:06:23.768Z,30.60
2022-11-20T00:08:51.599Z,27.83
2022-11-20T00:11:21.520Z,26.00
2022-11-20T00:13:50.858Z,23.20
2022-11-20T00:16:20.513Z,26.60
2022-11-20T00:18:48.215Z,25.27
2022-11-20T00:21:22.106Z,22.48
2022-11-20T00:23:50.574Z,29.55
2022-11-20T00:26:19.998Z,27.85
2022-11-20T00:28:52.475Z,26.77
2022-11-20T00:31:19.797Z,25.42
2022-11-20T00:33:47.317Z,26.73
2022-11-20T00:36:17.267Z,28.30
2022-11-20T00:38:45.269Z,34.03
2022-11-20T00:41:15.283Z,28.38
2022-11-20T00:43:42.917Z,26.85
2022-11-20T00:46:18.882Z,26.55
2022-11-20T00:48:46.321Z,26.27
2022-11-20T00:51:21.806Z,25.00
2022-11-20T00:53:48.927Z,28.92
2022-11-20T00:56:18.227Z,26.23
2022-11-20T00:58:47.628Z,27.13
2022-11-20T01:03:47.675Z,20.52
2022-11-20T01:06:20.398Z,21.90
2022-11-20T01:08:48.399Z,29.43
2022-11-20T01:11:18.147Z,21.77
2022-11-20T01:13:46.667Z,25.02
2022-11-20T01:16:34.950Z,32.22
2022-11-20T01:19:04.667Z,25.48
2022-11-20T01:21:34.407Z,24.58
2022-11-20T01:24:02.027Z,23.75
2022-11-20T01:26:31.334Z,26.92
2022-11-20T01:28:59.761Z,26.20
2022-11-20T01:31:29.252Z,25.40
2022-11-20T01:33:59.599Z,21.98
2022-11-20T01:36:29.000Z,23.33
2022-11-20T01:38:58.721Z,27.83
2022-11-20T01:41:49.158Z,24.50
2022-11-20T01:44:19.872Z,37.08
2022-11-20T01:47:00.366Z,20.33
2022-11-20T01:49:36.939Z,24.13
2022-11-20T01:52:24.119Z,26.73
2022-11-20T01:55:14.188Z,19.55
2022-11-20T01:57:42.046Z,20.88
2022-11-20T02:00:12.891Z,23.73
2022-11-20T02:02:43.194Z,20.02
2022-11-20T02:05:17.901Z,31.15
2022-11-20T02:07:46.367Z,23.50
2022-11-20T02:10:13.644Z,27.98
2022-11-20T02:12:59.634Z,27.25
2022-11-20T02:15:30.219Z,24.38
2022-11-20T02:17:57.958Z,19.30
2022-11-20T02:20:25.173Z,22.45
2022-11-20T02:22:59.218Z,22.20
2022-11-20T02:25:28.728Z,27.25
2022-11-20T02:27:56.183Z,22.02
2022-11-20T02:30:23.287Z,29.77
2022-11-20T02:32:50.290Z,20.40
2022-11-20T02:35:20.185Z,22.83
2022-11-20T02:37:51.185Z,21.40
2022-11-20T02:40:18.273Z,22.30
2022-11-20T02:42:45.291Z,23.20
2022-11-20T02:45:13.128Z,28.33
2022-11-20T02:47:40.479Z,23.45
2022-11-20T02:50:07.593Z,22.40
2022-11-20T02:52:34.590Z,20.63
2022-11-20T02:55:01.750Z,23.17
2022-11-20T02:57:28.974Z,21.60
2022-11-20T02:59:56.003Z,25.63
2022-11-20T03:02:23.003Z,22.73
2022-11-20T03:04:50.381Z,23.48
2022-11-20T03:07:17.373Z,20.88
2022-11-20T03:09:44.457Z,23.65
2022-11-20T03:12:11.413Z,23.70
2022-11-20T03:14:38.467Z,27.23
2022-11-20T03:17:05.487Z,22.42
2022-11-20T03:19:32.700Z,26.27
2022-11-20T03:22:01.027Z,26.48
2022-11-20T03:24:28.278Z,21.85
2022-11-20T03:26:55.317Z,21.00
2022-11-20T03:29:22.472Z,21.73
2022-11-20T03:31:49.655Z,23.67
2022-11-20T03:34:16.623Z,20.00
2022-11-20T03:36:44.066Z,20.33
2022-11-20T03:39:11.273Z,24.63
2022-11-20T03:41:41.087Z,23.13
2022-11-20T03:44:10.503Z,17.90
2022-11-20T03:46:37.772Z,23.90
2022-11-20T03:49:05.123Z,25.63
2022-11-20T03:51:34.345Z,21.73
2022-11-20T03:54:06.874Z,26.23
2022-11-20T03:56:36.849Z,21.67
2022-11-20T03:59:05.329Z,22.48
2022-11-20T04:01:35.126Z,20.42
2022-11-20T04:04:02.590Z,20.85
2022-11-20T04:06:38.380Z,20.27
2022-11-20T04:09:07.064Z,16.38
2022-11-20T04:11:36.194Z,20.30
2022-11-20T04:14:06.844Z,20.48
2022-11-20T04:16:36.585Z,17.05
2022-11-20T04:19:06.260Z,17.15
2022-11-20T04:21:33.624Z,16.38
2022-11-20T04:24:00.704Z,17.52
2022-11-20T04:26:29.131Z,17.98
2022-11-20T04:28:56.838Z,16.77
2022-11-20T04:31:29.425Z,22.85
2022-11-20T04:33:59.665Z,22.58
2022-11-20T04:36:28.018Z,19.67
2022-11-20T04:38:57.836Z,14.07
2022-11-20T04:41:28.057Z,17.50
2022-11-20T04:44:00.429Z,23.52
2022-11-20T04:46:28.666Z,17.97
2022-11-20T04:48:55.840Z,21.88
2022-11-20T04:51:23.317Z,19.58
2022-11-20T04:53:50.672Z,19.45
2022-11-20T04:56:17.704Z,34.33
2022-11-20T04:58:44.724Z,29.10
2022-11-20T05:01:14.676Z,20.67
2022-11-20T05:03:43.503Z,20.92
2022-11-20T05:06:13.220Z,16.33
2022-11-20T05:08:41.069Z,16.17
2022-11-20T05:11:16.433Z,17.35
2022-11-20T05:13:43.497Z,20.23
2022-11-20T05:16:13.450Z,21.85
2022-11-20T05:18:41.281Z,25.23
2022-11-20T05:21:09.936Z,17.95
2022-11-20T05:23:37.186Z,18.55
2022-11-20T05:26:05.781Z,16.02
2022-11-20T05:28:33.599Z,14.85
2022-11-20T05:31:08.385Z,16.13
2022-11-20T05:33:36.388Z,15.65
2022-11-20T05:36:05.006Z,16.80
2022-11-20T05:38:32.484Z,24.58
2022-11-20T05:41:05.516Z,18.15
2022-11-20T05:43:34.720Z,16.38
2022-11-20T05:46:02.691Z,17.52
2022-11-20T05:48:29.803Z,22.00
2022-11-20T05:50:59.323Z,20.08
2022-11-20T05:53:27.801Z,16.02
2022-11-20T05:55:59.700Z,18.35
2022-11-20T05:58:26.796Z,15.23
2022-11-20T06:00:53.822Z,22.13
2022-11-20T06:03:20.953Z,16.08
2022-11-20T06:05:48.444Z,18.83
2022-11-20T06:08:15.581Z,17.65
2022-11-20T06:10:42.615Z,14.27
2022-11-20T06:13:09.661Z,15.27
2022-11-20T06:15:36.689Z,19.67
2022-11-20T06:18:03.808Z,23.40
2022-11-20T06:20:30.784Z,17.55
2022-11-20T06:22:57.734Z,15.15
2022-11-20T06:25:24.782Z,14.38
2022-11-20T06:27:52.803Z,14.55
2022-11-20T06:30:19.894Z,15.38
2022-11-20T06:32:46.948Z,14.57
2022-11-20T06:35:13.981Z,20.52
2022-11-20T06:37:41.056Z,19.00
2022-11-20T06:40:08.968Z,18.48
2022-11-20T06:42:35.971Z,18.65
2022-11-20T06:45:03.102Z,17.88
2022-11-20T06:47:30.035Z,19.98
2022-11-20T06:49:57.017Z,21.20
2022-11-20T06:52:23.978Z,20.17
2022-11-20T06:54:51.007Z,19.10
2022-11-20T06:57:18.165Z,20.70
2022-11-20T06:59:45.155Z,17.40
2022-11-20T07:02:13.106Z,19.13
2022-11-20T07:04:40.596Z,16.98
2022-11-20T07:07:07.617Z,23.30
2022-11-20T07:09:35.121Z,16.00
2022-11-20T07:12:02.172Z,17.10
2022-11-20T07:14:29.758Z,15.52
2022-11-20T07:16:57.162Z,20.05
2022-11-20T07:19:24.291Z,16.50
2022-11-20T07:21:51.719Z,20.77
2022-11-20T07:24:18.739Z,25.55
2022-11-20T07:26:52.305Z,20.40
2022-11-20T07:29:19.692Z,18.30
2022-11-20T07:31:47.256Z,19.85
2022-11-20T07:34:14.384Z,23.20
2022-11-20T07:36:41.386Z,18.30
2022-11-20T07:39:08.414Z,18.77
2022-11-20T07:41:35.486Z,18.55
2022-11-20T07:44:02.529Z,28.38
2022-11-20T07:46:29.595Z,22.15
2022-11-20T07:48:56.596Z,21.35
2022-11-20T07:51:24.378Z,22.73
2022-11-20T07:53:53.230Z,22.60
2022-11-20T07:56:20.905Z,22.02
2022-11-20T07:58:51.029Z,32.17
2022-11-20T08:01:18.490Z,22.95
2022-11-20T08:03:45.471Z,24.85
2022-11-20T08:06:12.543Z,24.02
2022-11-20T08:08:43.101Z,26.88
2022-11-20T08:11:29.070Z,23.10
2022-11-20T08:14:14.672Z,23.88
2022-11-20T08:16:46.798Z,23.25
2022-11-20T08:19:15.377Z,17.95
2022-11-20T08:21:43.039Z,21.13
2022-11-20T08:24:11.274Z,20.67
2022-11-20T08:26:40.126Z,20.17
2022-11-20T08:29:07.552Z,24.85
2022-11-20T08:31:34.676Z,18.13
2022-11-20T08:34:06.289Z,23.20
2022-11-20T08:36:36.408Z,20.65
2022-11-20T08:39:04.442Z,25.42
2022-11-20T08:41:33.937Z,28.58
2022-11-20T08:44:06.246Z,30.83
2022-11-20T08:46:42.109Z,32.28
2022-11-20T08:49:11.769Z,22.00
2022-11-20T08:51:39.399Z,25.35
2022-11-20T08:54:07.594Z,25.75
2022-11-20T08:56:35.412Z,22.77
2022-11-20T08:59:20.573Z,24.02
2022-11-20T09:01:49.782Z,29.80
2022-11-20T09:04:17.039Z,22.48
2022-11-20T09:06:44.371Z,23.48
2022-11-20T09:09:11.637Z,28.55
2022-11-20T09:11:38.870Z,26.45
2022-11-20T09:14:06.174Z,30.73
2022-11-20T09:16:33.425Z,27.35
2022-11-20T09:19:40.647Z,33.80
2022-11-20T09:21:49.382Z,27.83
2022-11-20T09:24:16.989Z,19.08
2022-11-20T09:26:44.275Z,22.15
2022-11-20T09:29:11.953Z,22.98
2022-11-20T09:31:39.350Z,18.52
2022-11-20T09:34:06.364Z,23.92
2022-11-20T09:36:33.386Z,23.70
2022-11-20T09:39:00.611Z,24.55
2022-11-20T09:41:52.213Z,23.17
2022-11-20T09:44:31.706Z,27.88
2022-11-20T09:47:38.925Z,32.50
2022-11-20T09:50:37.552Z,21.67
2022-11-20T09:53:47.376Z,21.67
2022-11-20T09:56:18.395Z,23.73
2022-11-20T09:59:00.925Z,20.95
2022-11-20T10:01:33.296Z,22.17
2022-11-20T10:04:11.897Z,24.42
2022-11-20T10:07:30.829Z,23.65
2022-11-20T10:09:54.641Z,36.88
2022-11-20T10:13:04.539Z,29.05
2022-11-20T10:15:37.101Z,26.20
2022-11-20T10:18:12.764Z,25.10
2022-11-20T10:20:52.315Z,23.70
2022-11-20T10:23:49.111Z,24.33
2022-11-20T10:26:29.452Z,25.65
2022-11-20T10:29:11.344Z,26.40
2022-11-20T10:31:49.557Z,27.13
2022-11-20T10:34:23.950Z,22.90
2022-11-20T10:36:59.421Z,22.05
2022-11-20T10:39:44.947Z,25.63
2022-11-20T10:42:17.085Z,27.48
2022-11-20T10:45:05.808Z,30.75
2022-11-20T10:47:34.169Z,25.25
2022-11-20T10:50:10.877Z,27.05
2022-11-20T10:53:15.265Z,25.23
2022-11-20T10:55:55.048Z,27.92
2022-11-20T10:58:41.331Z,25.27
2022-11-20T11:01:23.501Z,29.40
2022-11-20T11:03:53.309Z,25.17
2022-11-20T11:06:35.472Z,29.60
2022-11-20T11:09:10.118Z,27.92
2022-11-20T11:11:39.398Z,30.73
2022-11-20T11:14:14.948Z,33.97
2022-11-20T11:16:54.746Z,30.80
2022-11-20T11:19:22.788Z,30.58
2022-11-20T11:21:56.129Z,27.80
2022-11-20T11:24:41.619Z,30.42
2022-11-20T11:27:18.846Z,28.30
2022-11-20T11:29:49.276Z,33.53
2022-11-20T11:32:21.973Z,32.83
2022-11-20T11:35:07.724Z,34.38
2022-11-20T11:37:38.054Z,36.30
2022-11-20T11:40:24.690Z,36.25
2022-11-20T11:42:58.941Z,35.85
2022-11-20T11:45:26.794Z,38.58
2022-11-20T11:47:56.795Z,34.72
2022-11-20T11:50:29.123Z,37.83
2022-11-20T11:53:12.760Z,35.10
2022-11-20T11:55:57.465Z,38.33
2022-11-20T11:58:33.275Z,35.47
2022-11-20T12:01:09.441Z,37.25
2022-11-20T12:03:42.958Z,32.83
2022-11-20T12:06:15.607Z,36.72
2022-11-20T12:08:58.767Z,39.28
2022-11-20T12:11:34.835Z,36.58
2022-11-20T12:14:24.996Z,37.00
2022-11-20T12:16:53.775Z,36.25
2022-11-20T12:19:21.414Z,40.95
2022-11-20T12:22:07.958Z,35.10
2022-11-20T12:24:50.300Z,41.80
2022-11-20T12:27:45.346Z,39.90
2022-11-20T12:30:17.895Z,40.28
2022-11-20T12:32:51.214Z,47.15
2022-11-20T12:35:51.087Z,38.25
2022-11-20T12:38:43.068Z,40.45
2022-11-20T12:42:00.137Z,55.00
2022-11-20T12:44:52.144Z,38.33
2022-11-20T12:47:31.144Z,38.88
2022-11-20T12:50:53.364Z,42.60
2022-11-20T12:53:41.697Z,41.33
2022-11-20T12:56:11.540Z,40.05
2022-11-20T12:59:08.586Z,49.35
2022-11-20T13:01:56.948Z,57.58
2022-11-20T13:04:45.177Z,52.05
2022-11-20T13:07:17.083Z,56.33
2022-11-20T13:09:50.815Z,41.42
2022-11-20T13:15:05.292Z,48.17
2022-11-20T13:17:44.158Z,44.83
2022-11-20T13:20:18.086Z,37.40
2022-11-20T13:22:50.568Z,39.90
2022-11-20T13:25:29.547Z,58.15
2022-11-20T13:27:58.939Z,46.13
2022-11-20T13:30:28.160Z,41.40
2022-11-20T13:32:56.771Z,39.75
2022-11-20T13:35:32.640Z,33.38
2022-11-20T13:38:09.120Z,39.75
2022-11-20T13:40:53.020Z,37.53
2022-11-20T13:43:39.777Z,30.23
2022-11-20T13:46:09.352Z,33.05
2022-11-20T13:48:44.606Z,34.58
2022-11-20T13:51:39.982Z,34.70
2022-11-20T13:54:25.614Z,43.95
2022-11-20T13:57:28.572Z,34.28
2022-11-20T14:00:11.845Z,34.60
2022-11-20T14:02:39.487Z,37.38
2022-11-20T14:05:07.069Z,37.75
2022-11-20T14:07:42.134Z,33.38
2022-11-20T14:10:31.663Z,37.33
2022-11-20T14:13:10.591Z,36.40
2022-11-20T14:15:44.655Z,34.10
2022-11-20T14:18:15.479Z,52.20
2022-11-20T14:20:43.678Z,45.42
2022-11-20T14:23:11.718Z,34.17
2022-11-20T14:25:43.650Z,36.13
2022-11-20T14:28:26.698Z,47.42
2022-11-20T14:30:54.697Z,43.33
2022-11-20T14:33:25.779Z,42.33
2022-11-20T14:35:58.469Z,37.95
2022-11-20T14:38:28.242Z,40.83
2022-11-20T14:40:55.557Z,40.67
2022-11-20T14:43:31.621Z,41.70
2022-11-20T14:46:05.189Z,38.92
2022-11-20T14:48:40.415Z,43.15
2022-11-20T14:51:11.409Z,38.90
2022-11-20T14:53:38.662Z,76.97
2022-11-20T14:56:05.768Z,53.78
2022-11-20T14:58:34.750Z,36.03
2022-11-20T15:01:07.994Z,44.03
2022-11-20T15:03:37.582Z,47.10
2022-11-20T15:06:06.588Z,45.00
2022-11-20T15:08:34.979Z,46.55
2022-11-20T15:11:02.894Z,43.70
2022-11-20T15:13:35.523Z,43.88
2022-11-20T15:16:04.662Z,45.97
2022-11-20T15:18:42.440Z,47.38
2022-11-20T15:21:14.730Z,47.55
2022-11-20T15:23:42.128Z,37.25
2022-11-20T15:26:15.431Z,46.22
2022-11-20T15:28:51.273Z,61.53
2022-11-20T15:31:22.970Z,46.10
2022-11-20T15:33:50.446Z,52.83
2022-11-20T15:36:18.349Z,49.65
2022-11-20T15:38:45.474Z,46.00
2022-11-20T15:41:12.568Z,51.05
2022-11-20T15:43:39.817Z,61.45
2022-11-20T15:46:20.294Z,67.43
2022-11-20T15:48:52.712Z,66.65
2022-11-20T15:51:30.268Z,52.60
2022-11-20T15:53:57.870Z,43.95
2022-11-20T15:56:25.468Z,53.08
2022-11-20T15:58:52.751Z,62.53
2022-11-20T16:01:23.083Z,76.80
2022-11-20T16:03:50.260Z,60.35
2022-11-20T16:06:17.400Z,67.28
2022-11-20T16:08:44.996Z,68.88
2022-11-20T16:11:17.027Z,51.28
2022-11-20T16:14:02.526Z,83.00
2022-11-20T16:16:31.120Z,52.20
2022-11-20T16:18:58.581Z,45.45
2022-11-20T16:21:32.235Z,44.97
2022-11-20T16:24:00.905Z,45.45
2022-11-20T16:26:28.746Z,47.58
2022-11-20T16:28:56.103Z,49.20
2022-11-20T16:31:23.300Z,52.92
2022-11-20T16:33:55.554Z,52.30
2022-11-20T16:36:25.022Z,43.47
2022-11-20T16:38:57.206Z,43.65
2022-11-20T16:41:26.647Z,45.33
2022-11-20T16:43:58.209Z,52.83
2022-11-20T16:46:27.726Z,45.42
2022-11-20T16:48:57.512Z,47.53
2022-11-20T16:51:25.422Z,52.78
2022-11-20T16:53:53.542Z,50.72
2022-11-20T16:56:22.625Z,47.83
2022-11-20T16:58:51.322Z,42.38
2022-11-20T17:01:21.417Z,49.92
2022-11-20T17:04:08.711Z,52.47
2022-11-20T17:06:41.543Z,48.33
2022-11-20T17:09:09.581Z,49.87
2022-11-20T17:11:37.333Z,48.20
2022-11-20T17:14:07.267Z,41.80
2022-11-20T17:16:35.870Z,41.85
2022-11-20T17:19:05.682Z,45.42
2022-11-20T17:21:35.997Z,46.17
2022-11-20T17:24:06.063Z,41.03
2022-11-20T17:26:34.103Z,42.25
2022-11-20T17:29:05.380Z,52.25
2022-11-20T17:31:34.723Z,49.15
2022-11-20T17:34:02.169Z,45.25
2022-11-20T17:36:30.045Z,52.50
2022-11-20T17:38:57.754Z,48.92
2022-11-20T17:41:27.383Z,36.58
2022-11-20T17:43:59.437Z,40.13
2022-11-20T17:46:29.163Z,42.92
2022-11-20T17:48:56.797Z,45.05
2022-11-20T17:51:29.172Z,47.70
2022-11-20T17:54:01.906Z,40.40
2022-11-20T17:56:52.294Z,44.60
2022-11-20T17:59:19.570Z,46.53
2022-11-20T18:01:46.999Z,45.88
2022-11-20T18:04:14.297Z,41.58
2022-11-20T18:06:42.417Z,41.83
2022-11-20T18:09:09.905Z,41.80
2022-11-20T18:11:39.457Z,41.05
2022-11-20T18:14:32.767Z,46.85
2022-11-20T18:17:06.940Z,41.78
2022-11-20T18:19:55.733Z,50.72
2022-11-20T18:22:30.274Z,49.58
2022-11-20T18:24:57.426Z,63.28
2022-11-20T18:27:24.790Z,51.25
2022-11-20T18:29:52.584Z,49.22
2022-11-20T18:32:22.155Z,46.47
2022-11-20T18:34:49.896Z,46.13
2022-11-20T18:37:17.492Z,43.70
2022-11-20T18:39:44.571Z,46.72
2022-11-20T18:42:34.810Z,41.03
2022-11-20T18:45:04.717Z,45.20
2022-11-20T18:47:37.337Z,41.30
2022-11-20T18:50:07.324Z,42.38
2022-11-20T18:52:44.548Z,43.72
2022-11-20T18:55:12.670Z,43.50
2022-11-20T18:57:39.886Z,42.65
2022-11-20T19:02:54.773Z,43.22
2022-11-20T19:05:22.222Z,46.38
2022-11-20T19:07:49.279Z,42.45
2022-11-20T19:10:20.087Z,45.17
2022-11-20T19:12:47.170Z,50.15
2022-11-20T19:15:14.230Z,42.30
2022-11-20T19:17:41.392Z,41.40
2022-11-20T19:20:08.802Z,48.17
2022-11-20T19:22:35.856Z,40.03
2022-11-20T19:25:02.979Z,45.47
2022-11-20T19:27:30.262Z,41.20
2022-11-20T19:30:03.128Z,40.65
2022-11-20T19:32:30.624Z,42.42
2022-11-20T19:34:57.739Z,43.80
2022-11-20T19:37:25.236Z,41.05
2022-11-20T19:39:52.547Z,45.47
2022-11-20T19:42:19.623Z,46.67
2022-11-20T19:44:46.763Z,46.42
2022-11-20T19:47:14.813Z,50.17
2022-11-20T19:49:42.167Z,45.97
2022-11-20T19:52:09.447Z,46.65
2022-11-20T19:54:37.199Z,40.55
2022-11-20T19:57:04.584Z,33.38
2022-11-20T19:59:31.736Z,42.45
2022-11-20T20:01:58.878Z,44.15
2022-11-20T20:04:25.941Z,43.85
2022-11-20T20:06:52.946Z,39.42
2022-11-20T20:09:20.971Z,39.67
2022-11-20T20:11:48.203Z,46.53
2022-11-20T20:14:16.218Z,48.72
2022-11-20T20:16:43.218Z,44.65
2022-11-20T20:19:16.959Z,46.38
2022-11-20T20:24:12.465Z,44.72
2022-11-20T20:26:40.084Z,42.33
2022-11-20T20:29:07.257Z,43.22
2022-11-20T20:31:35.356Z,43.10
2022-11-20T20:34:05.121Z,48.03
2022-11-20T20:36:32.233Z,45.70
2022-11-20T20:38:59.782Z,49.65
2022-11-20T20:41:27.051Z,48.17
2022-11-20T20:44:13.560Z,44.17
2022-11-20T20:46:41.341Z,46.85
2022-11-20T20:49:08.631Z,59.72
2022-11-20T20:51:36.243Z,56.92
2022-11-20T20:54:03.807Z,48.08
2022-11-20T20:56:31.009Z,48.60
2022-11-20T20:58:58.116Z,52.08
2022-11-20T21:01:28.547Z,56.08
2022-11-20T21:03:56.645Z,47.13
2022-11-20T21:06:24.392Z,51.78
2022-11-20T21:08:51.447Z,58.28
2022-11-20T21:11:20.122Z,48.78
2022-11-20T21:13:48.270Z,55.97
2022-11-20T21:16:17.296Z,50.25
2022-11-20T21:18:44.740Z,49.85
2022-11-20T21:21:32.326Z,53.40
2022-11-20T21:23:59.570Z,54.85
2022-11-20T21:26:26.695Z,47.33
2022-11-20T21:28:54.085Z,48.65
2022-11-20T21:31:24.822Z,55.38
2022-11-20T21:33:53.919Z,53.63
2022-11-20T21:36:26.175Z,49.08
2022-11-20T21:38:55.069Z,55.42
2022-11-20T21:41:23.198Z,50.92
2022-11-20T21:44:29.000Z,56.33
2022-11-20T21:46:43.419Z,52.20
2022-11-20T21:49:10.861Z,59.08
2022-11-20T21:51:38.141Z,53.45
2022-11-20T21:54:05.480Z,48.78
2022-11-20T21:56:32.715Z,48.45
2022-11-20T21:58:59.797Z,48.53
2022-11-20T22:01:29.566Z,60.97
2022-11-20T22:04:01.566Z,55.65
2022-11-20T22:06:33.824Z,53.83
2022-11-20T22:09:02.265Z,51.05
2022-11-20T22:11:29.868Z,54.22
2022-11-20T22:14:15.787Z,47.95
2022-11-20T22:16:43.039Z,53.08
2022-11-20T22:19:10.147Z,50.17
2022-11-20T22:21:39.344Z,51.47
2022-11-20T22:24:06.465Z,51.85
2022-11-20T22:26:39.938Z,63.42
2022-11-20T22:29:10.995Z,57.33
2022-11-20T22:31:38.034Z,58.97
2022-11-20T22:34:05.042Z,56.22
2022-11-20T22:36:32.445Z,62.08
2022-11-20T22:39:02.631Z,56.28
2022-11-20T22:41:30.112Z,56.17
2022-11-20T22:44:02.392Z,51.95
2022-11-20T22:46:33.181Z,51.47
2022-11-20T22:49:02.951Z,51.00
2022-11-20T22:51:32.819Z,53.08
2022-11-20T22:54:00.834Z,44.08
2022-11-20T22:56:27.929Z,52.78
2022-11-20T22:58:55.274Z,57.67
2022-11-20T23:01:24.110Z,49.85
2022-11-20T23:03:56.282Z,54.65
2022-11-20T23:06:24.228Z,48.97
2022-11-20T23:08:51.538Z,57.10
2022-11-20T23:11:25.167Z,49.15
2022-11-20T23:13:58.213Z,51.25
2022-11-20T23:16:27.728Z,50.03
2022-11-20T23:19:00.666Z,54.50
2022-11-20T23:21:28.468Z,51.42
2022-11-20T23:23:57.224Z,49.40
2022-11-20T23:26:29.580Z,48.72
2022-11-20T23:28:57.925Z,50.80
2022-11-20T23:31:26.213Z,54.40
2022-11-20T23:33:53.492Z,50.47
2022-11-20T23:36:21.237Z,49.65
2022-11-20T23:38:48.592Z,49.20
2022-11-20T23:41:15.752Z,46.50
2022-11-20T23:43:42.837Z,56.90
2022-11-20T23:46:15.242Z,43.30
2022-11-20T23:48:44.817Z,48.53
2022-11-20T23:51:11.942Z,45.65
2022-11-20T23:53:38.956Z,51.20
2022-11-20T23:56:06.238Z,44.33
2022-11-20T23:58:35.994Z,43.22
